Time;durP1;ratioP1;P1;durP2;ratioP2;P2;SDS_P1;SDS_P2;PMS_P1;PMS_P2;Temp;Humidity;BMP_temperature;BMP_pressure;BME280_temperature;BME280_humidity;BME280_pressure;Samples;Min_cycle;Max_cycle;Signal;HPM_P1;HPM_P2
2024/03/21 00:00:32;;;;;;;16.23;12.27;;;;;;;12.32;97.04;101045.31;5053641;28;20232;-78
2024/03/21 00:03:00;;;;;;;17.00;13.03;;;;;;;12.33;97.63;101047.03;5056189;28;20220;-81
2024/03/21 00:05:26;;;;;;;16.13;12.07;;;;;;;12.34;97.48;101043.41;5051527;28;20237;-78
2024/03/21 00:07:53;;;;;;;15.20;11.80;;;;;;;12.34;97.82;101048.75;5053573;28;20647;-78
2024/03/21 00:10:20;;;;;;;16.27;12.10;;;;;;;12.35;98.42;101046.94;5059835;28;20224;-78
2024/03/21 00:12:47;;;;;;;16.03;12.60;;;;;;;12.34;99.54;101047.88;5056454;28;20205;-77
2024/03/21 00:15:13;;;;;;;19.20;13.67;;;;;;;12.33;99.93;101047.03;5054353;28;20743;-77
2024/03/21 00:17:40;;;;;;;15.63;13.80;;;;;;;12.33;100.00;101055.03;5054960;28;20212;-78
2024/03/21 00:20:09;;;;;;;20.17;13.13;;;;;;;12.31;100.00;101051.59;5055580;28;20224;-77
2024/03/21 00:22:36;;;;;;;16.23;13.27;;;;;;;12.29;100.00;101044.63;5053754;28;20208;-78
2024/03/21 00:25:02;;;;;;;16.10;13.43;;;;;;;12.28;100.00;101042.91;5047361;28;20750;-77
2024/03/21 00:27:29;;;;;;;15.67;12.43;;;;;;;12.27;100.00;101046.53;5055083;28;20289;-78
2024/03/21 00:29:55;;;;;;;18.47;13.30;;;;;;;12.27;100.00;101039.38;5057565;28;20233;-78
2024/03/21 00:32:21;;;;;;;19.77;14.90;;;;;;;12.27;100.00;101043.88;5052200;28;20712;-77
2024/03/21 00:34:47;;;;;;;17.87;14.10;;;;;;;12.25;100.00;101035.09;5050180;28;20289;-78
2024/03/21 00:37:15;;;;;;;18.60;14.00;;;;;;;12.24;100.00;101036.91;5059017;28;20254;-77
2024/03/21 00:39:42;;;;;;;16.97;13.23;;;;;;;12.24;100.00;101044.06;5054039;28;20202;-77
2024/03/21 00:42:09;;;;;;;16.83;13.17;;;;;;;12.21;100.00;101039.78;5060142;28;20770;-78
2024/03/21 00:44:35;;;;;;;15.17;12.47;;;;;;;12.21;100.00;101036.25;5047365;28;20209;-78
2024/03/21 00:47:02;;;;;;;16.20;12.90;;;;;;;12.18;100.00;101039.13;5050942;28;20581;-78
2024/03/21 00:49:28;;;;;;;14.20;12.23;;;;;;;12.15;100.00;101038.38;5064850;28;20205;-78
2024/03/21 00:51:54;;;;;;;15.90;11.90;;;;;;;12.13;100.00;101037.59;5055878;28;20252;-79
2024/03/21 00:54:22;;;;;;;15.30;12.17;;;;;;;12.10;100.00;101029.78;5054181;28;20308;-79
2024/03/21 00:56:49;;;;;;;17.30;13.07;;;;;;;12.08;100.00;101025.50;5049596;28;20240;-79
2024/03/21 00:59:14;;;;;;;18.80;12.60;;;;;;;12.05;100.00;101021.22;5054760;28;20201;-79
2024/03/21 01:01:41;;;;;;;19.97;13.27;;;;;;;12.03;100.00;101015.09;5055709;28;20221;-79
2024/03/21 01:04:07;;;;;;;18.10;13.33;;;;;;;12.03;100.00;101016.91;5053731;28;20193;-78
2024/03/21 01:06:34;;;;;;;16.80;13.47;;;;;;;12.00;100.00;101012.63;5052312;28;20233;-79
2024/03/21 01:09:00;;;;;;;16.43;13.17;;;;;;;11.98;100.00;101006.56;5052062;28;20245;-79
2024/03/21 01:11:28;;;;;;;17.47;13.87;;;;;;;11.97;100.00;101010.16;5066572;28;20223;-79
2024/03/21 01:13:53;;;;;;;16.20;13.50;;;;;;;11.96;100.00;101005.78;5060614;28;20692;-79
2024/03/21 01:16:20;;;;;;;19.47;13.47;;;;;;;11.95;100.00;101000.53;5058189;28;20209;-79
2024/03/21 01:18:46;;;;;;;17.20;14.50;;;;;;;11.95;100.00;101003.22;5058653;28;20243;-78
2024/03/21 01:21:12;;;;;;;16.13;12.90;;;;;;;11.92;100.00;100992.72;5053363;28;20221;-79
2024/03/21 01:23:38;;;;;;;16.33;12.63;;;;;;;11.89;100.00;100990.25;5050403;28;20221;-79
2024/03/21 01:26:05;;;;;;;16.70;12.63;;;;;;;11.86;100.00;100988.63;5048086;28;20653;-79
2024/03/21 01:28:32;;;;;;;15.17;12.80;;;;;;;11.83;100.00;100995.00;5050733;28;20572;-78
2024/03/21 01:31:06;;;;;;;16.90;13.17;;;;;;;11.81;100.00;100990.75;5057830;28;20228;-79
2024/03/21 01:33:33;;;;;;;15.93;13.50;;;;;;;11.77;100.00;100987.41;5057075;28;20257;-78
2024/03/21 01:36:00;;;;;;;17.47;13.83;;;;;;;11.75;100.00;100991.94;5056985;28;20228;-78
2024/03/21 01:38:25;;;;;;;20.33;14.73;;;;;;;11.72;100.00;100984.13;5061091;28;20251;-79
2024/03/21 01:40:52;;;;;;;18.43;13.40;;;;;;;11.69;100.00;100984.31;5055118;28;20229;-79
2024/03/21 01:43:21;;;;;;;15.93;13.13;;;;;;;11.66;100.00;100981.84;5058452;28;20256;-79
2024/03/21 01:46:10;;;;;;;20.17;15.73;;;;;;;11.64;100.00;100983.78;5057721;28;20567;-79
2024/03/21 01:48:36;;;;;;;18.60;14.17;;;;;;;11.60;100.00;100968.91;5049272;28;20238;-79
2024/03/21 01:51:03;;;;;;;19.63;13.80;;;;;;;11.58;100.00;100973.47;5061109;28;20591;-78
2024/03/21 01:53:31;;;;;;;16.13;12.97;;;;;;;11.56;100.00;100972.72;5053612;28;20608;-78
2024/03/21 01:55:59;;;;;;;18.40;12.43;;;;;;;11.54;100.00;100979.09;5049239;28;20704;-78
2024/03/21 01:58:24;;;;;;;18.53;13.77;;;;;;;11.51;100.00;100971.25;5044406;28;20264;-78
2024/03/21 02:00:52;;;;;;;15.83;13.40;;;;;;;11.47;100.00;100968.78;5058097;28;20306;-78
2024/03/21 02:03:18;;;;;;;17.17;12.07;;;;;;;11.47;100.00;100978.59;5049923;28;20288;-78
2024/03/21 02:05:45;;;;;;;16.17;13.30;;;;;;;11.45;100.00;100973.38;5054751;28;20294;-78
2024/03/21 02:08:10;;;;;;;17.10;12.77;;;;;;;11.44;100.00;100973.47;5058532;28;20288;-77
2024/03/21 02:10:37;;;;;;;18.40;13.93;;;;;;;11.41;100.00;100974.53;5056881;28;20305;-79
2024/03/21 02:13:03;;;;;;;16.30;13.50;;;;;;;11.41;100.00;100979.84;5054270;28;20239;-78
2024/03/21 02:15:31;;;;;;;23.23;14.63;;;;;;;11.41;100.00;100976.31;5048753;28;20224;-78
2024/03/21 02:17:58;;;;;;;16.47;12.47;;;;;;;11.38;100.00;100973.84;5047112;28;20212;-78
2024/03/21 02:20:25;;;;;;;14.87;12.47;;;;;;;11.34;100.00;100975.84;5054415;28;20660;-78
2024/03/21 02:22:52;;;;;;;14.83;12.40;;;;;;;11.33;100.00;100966.13;5044696;28;20308;-78
2024/03/21 02:25:19;;;;;;;13.33;11.40;;;;;;;11.29;100.00;100967.25;5056118;28;20418;-79
2024/03/21 02:27:44;;;;;;;14.13;12.20;;;;;;;11.27;100.00;100966.50;5054353;28;20236;-79
2024/03/21 02:30:12;;;;;;;16.53;12.10;;;;;;;11.24;100.00;100968.50;5052956;28;20269;-79
2024/03/21 02:32:37;;;;;;;15.80;12.10;;;;;;;11.23;100.00;100961.47;5061851;28;20201;-79
2024/03/21 02:35:08;;;;;;;16.67;12.70;;;;;;;11.20;100.00;100961.63;5055537;28;20276;-79
2024/03/21 02:37:34;;;;;;;15.77;12.50;;;;;;;11.18;100.00;100966.19;5048753;28;20207;-79
2024/03/21 02:40:02;;;;;;;14.47;12.60;;;;;;;11.18;100.00;100960.88;5053363;28;20237;-78
2024/03/21 02:42:28;;;;;;;16.87;12.93;;;;;;;11.18;100.00;100968.88;5052842;28;20553;-79
2024/03/21 02:44:54;;;;;;;18.73;13.47;;;;;;;11.18;100.00;100958.19;5052863;28;20240;-78
2024/03/21 02:47:20;;;;;;;16.93;12.53;;;;;;;11.17;100.00;100956.47;5055494;28;20247;-78
2024/03/21 02:49:46;;;;;;;15.23;12.50;;;;;;;11.17;100.00;100948.50;5054831;28;20283;-77
2024/03/21 02:52:13;;;;;;;13.83;11.03;;;;;;;11.15;100.00;100948.56;5056464;28;20229;-77
2024/03/21 02:54:39;;;;;;;12.90;10.27;;;;;;;11.15;100.00;100948.56;5051962;28;20265;-79
2024/03/21 02:57:09;;;;;;;15.40;11.03;;;;;;;11.15;100.00;100948.56;5051548;28;20291;-77
2024/03/21 02:59:35;;;;;;;14.50;10.37;;;;;;;11.16;100.00;100944.09;5054769;28;20247;-78
2024/03/21 03:02:03;;;;;;;13.07;10.20;;;;;;;11.16;100.00;100944.97;5051335;28;20701;-78
2024/03/21 03:04:29;;;;;;;13.93;11.17;;;;;;;11.17;100.00;100946.69;5044029;28;20202;-78
2024/03/21 03:06:56;;;;;;;12.63;10.33;;;;;;;11.18;100.00;100950.19;5065629;28;20292;-78
2024/03/21 03:09:21;;;;;;;14.07;10.83;;;;;;;11.18;100.00;100943.06;5053908;28;20205;-78
2024/03/21 03:11:48;;;;;;;16.23;11.07;;;;;;;11.18;100.00;100939.53;5058136;28;20227;-78
2024/03/21 03:14:16;;;;;;;12.93;9.27;;;;;;;11.19;100.00;100938.59;5057987;28;20205;-79
2024/03/21 03:16:42;;;;;;;14.00;9.07;;;;;;;11.18;100.00;100935.06;5054990;28;20197;-78
2024/03/21 03:19:08;;;;;;;11.77;9.87;;;;;;;11.18;100.00;100939.53;5054529;28;20243;-78
2024/03/21 03:21:35;;;;;;;14.30;10.47;;;;;;;11.17;100.00;100941.34;5056864;28;20647;-78
2024/03/21 03:24:00;;;;;;;16.57;10.80;;;;;;;11.18;100.00;100943.06;5055042;28;20299;-78
2024/03/21 03:26:27;;;;;;;13.90;10.53;;;;;;;11.16;100.00;100939.63;5049668;28;20242;-78
2024/03/21 03:28:52;;;;;;;16.27;11.27;;;;;;;11.16;100.00;100938.78;5049155;28;20718;-78
2024/03/21 03:31:20;;;;;;;13.43;10.20;;;;;;;11.13;100.00;100939.81;5057566;28;20245;-78
2024/03/21 03:36:32;;;;;;;12.57;10.83;;;;;;;11.13;100.00;100938.00;5055503;28;20241;-78
2024/03/21 03:38:58;;;;;;;14.00;10.93;;;;;;;11.13;100.00;100939.81;5054716;28;20722;-78
2024/03/21 03:41:25;;;;;;;15.43;11.67;;;;;;;11.12;100.00;100933.63;5046536;28;20253;-78
2024/03/21 03:43:52;;;;;;;13.90;11.63;;;;;;;11.10;100.00;100943.56;5054180;28;20640;-78
2024/03/21 03:46:20;;;;;;;13.37;11.27;;;;;;;11.11;100.00;100941.72;5055289;28;20307;-79
2024/03/21 03:48:47;;;;;;;14.37;11.07;;;;;;;11.10;100.00;100948.88;5054410;28;20231;-78
2024/03/21 03:51:13;;;;;;;14.53;12.10;;;;;;;11.10;100.00;100954.22;5053677;28;20664;-78
2024/03/21 03:53:39;;;;;;;15.63;11.07;;;;;;;11.10;100.00;100951.56;5057414;28;20289;-78
2024/03/21 03:56:06;;;;;;;14.50;10.83;;;;;;;11.09;100.00;100955.16;5054736;28;20261;-78
2024/03/21 03:58:31;;;;;;;16.10;11.30;;;;;;;11.06;100.00;100943.81;5068309;28;20205;-78
2024/03/21 04:00:58;;;;;;;15.93;11.07;;;;;;;11.04;100.00;100946.59;5056677;28;20982;-78
2024/03/21 04:03:26;;;;;;;13.90;11.33;;;;;;;11.02;100.00;100960.94;5052451;28;20290;-79
2024/03/21 04:05:59;;;;;;;15.17;10.80;;;;;;;11.00;100.00;100955.69;5055423;28;20198;-78
2024/03/21 04:08:25;;;;;;;15.37;11.23;;;;;;;10.98;100.00;100959.41;5063275;28;20767;-78
2024/03/21 04:10:52;;;;;;;17.10;11.10;;;;;;;10.95;100.00;100963.09;5050394;28;20264;-78
2024/03/21 04:13:18;;;;;;;15.40;10.70;;;;;;;10.93;100.00;100970.34;5055321;28;20230;-78
2024/03/21 04:15:45;;;;;;;13.20;10.57;;;;;;;10.94;100.00;100971.19;5053108;28;20259;-78
2024/03/21 04:18:11;;;;;;;14.70;10.60;;;;;;;10.94;100.00;100966.72;5056376;28;20238;-78
2024/03/21 04:20:39;;;;;;;19.23;12.17;;;;;;;10.96;100.00;100971.97;5062181;28;20277;-78
2024/03/21 04:23:05;;;;;;;16.67;12.13;;;;;;;10.96;100.00;100972.81;5054084;28;20249;-78
2024/03/21 04:25:31;;;;;;;15.33;11.70;;;;;;;10.97;100.00;100979.00;5053794;28;20229;-78
2024/03/21 04:27:57;;;;;;;14.63;12.23;;;;;;;10.99;100.00;100979.78;5058050;28;20696;-78
2024/03/21 04:30:24;;;;;;;16.03;11.20;;;;;;;11.01;100.00;100968.09;5062739;28;20240;-78
2024/03/21 04:32:49;;;;;;;16.17;11.43;;;;;;;11.02;100.00;100982.25;5065802;28;20243;-78
2024/03/21 04:35:16;;;;;;;13.30;11.20;;;;;;;11.03;100.00;100989.31;5055884;28;20281;-78
2024/03/21 04:37:44;;;;;;;16.27;11.10;;;;;;;11.02;100.00;100991.13;5050709;28;20297;-78
2024/03/21 04:40:11;;;;;;;14.67;10.10;;;;;;;11.04;100.00;101002.56;5053872;28;20229;-78
2024/03/21 04:42:38;;;;;;;12.73;10.27;;;;;;;11.05;100.00;100998.06;5054089;28;20330;-78
2024/03/21 04:45:05;;;;;;;16.50;11.70;;;;;;;11.04;100.00;101007.88;5053751;28;20266;-78
2024/03/21 04:47:32;;;;;;;13.63;11.30;;;;;;;11.04;100.00;101010.53;5063278;28;20246;-78
2024/03/21 04:49:59;;;;;;;15.50;11.73;;;;;;;11.01;100.00;101013.38;5062335;28;20239;-79
2024/03/21 04:52:25;;;;;;;19.63;11.63;;;;;;;11.02;100.00;101015.09;5073539;28;20298;-79
2024/03/21 04:54:53;;;;;;;18.57;13.03;;;;;;;11.02;100.00;101016.91;5073145;28;20209;-79
2024/03/21 04:57:18;;;;;;;18.87;13.40;;;;;;;11.03;100.00;101007.97;5056152;28;20300;-79
2024/03/21 04:59:45;;;;;;;20.67;14.13;;;;;;;11.03;100.00;101007.97;5050839;28;20762;-79
2024/03/21 05:02:12;;;;;;;19.17;13.83;;;;;;;11.02;100.00;101017.78;5066321;28;20924;-79
2024/03/21 05:04:37;;;;;;;18.80;14.63;;;;;;;11.03;100.00;101010.63;5054161;28;20238;-79
2024/03/21 05:07:04;;;;;;;23.13;14.10;;;;;;;11.03;100.00;101010.63;5053608;28;20237;-79
2024/03/21 05:09:29;;;;;;;21.47;15.77;;;;;;;11.05;100.00;101014.94;5061779;28;20200;-79
2024/03/21 05:11:57;;;;;;;23.73;16.63;;;;;;;11.05;100.00;101008.75;5054893;28;20781;-79
2024/03/21 05:14:23;;;;;;;25.93;18.67;;;;;;;11.06;100.00;101000.66;5057483;28;20238;-79
2024/03/21 05:16:50;;;;;;;26.23;18.77;;;;;;;11.07;100.00;101010.38;5060956;28;20687;-79
2024/03/21 05:19:15;;;;;;;28.60;19.77;;;;;;;11.09;100.00;101012.94;5049430;28;20281;-78
2024/03/21 05:21:42;;;;;;;36.40;22.90;;;;;;;11.08;100.00;101017.41;5064610;28;20263;-79
2024/03/21 05:24:08;;;;;;;31.80;21.53;;;;;;;11.10;100.00;101017.31;5064926;28;20209;-78
2024/03/21 05:26:34;;;;;;;37.87;23.47;;;;;;;11.10;100.00;101020.84;5060589;28;20205;-78
2024/03/21 05:29:01;;;;;;;36.20;22.23;;;;;;;11.09;100.00;101027.13;5053402;28;20312;-78
2024/03/21 05:31:28;;;;;;;35.07;22.60;;;;;;;11.11;100.00;101033.19;5045922;28;20285;-78
2024/03/21 05:33:54;;;;;;;42.90;26.13;;;;;;;11.11;100.00;101030.53;5052106;28;20207;-78
2024/03/21 05:36:21;;;;;;;43.10;26.83;;;;;;;11.11;100.00;101030.53;5060040;28;20285;-79
2024/03/21 05:38:47;;;;;;;44.97;27.33;;;;;;;11.12;100.00;101028.72;5056755;28;20257;-79
2024/03/21 05:41:14;;;;;;;44.50;27.83;;;;;;;11.13;100.00;101036.63;5050506;28;20239;-79
2024/03/21 05:43:40;;;;;;;41.50;26.30;;;;;;;11.13;100.00;101030.44;5062667;28;20714;-79
2024/03/21 05:46:08;;;;;;;41.27;25.80;;;;;;;11.12;100.00;101037.59;5056735;28;20231;-79
2024/03/21 05:48:34;;;;;;;40.53;25.23;;;;;;;11.13;100.00;101033.13;5063531;28;20767;-79
2024/03/21 05:51:02;;;;;;;37.83;24.63;;;;;;;11.14;100.00;101021.50;5060519;28;20318;-79
2024/03/21 05:53:28;;;;;;;37.50;22.87;;;;;;;11.13;100.00;101033.97;5058504;28;20209;-78
2024/03/21 05:55:57;;;;;;;37.60;23.27;;;;;;;11.11;100.00;101033.19;5051037;28;20231;-79
2024/03/21 05:58:23;;;;;;;34.50;23.53;;;;;;;11.11;100.00;101038.53;5052613;28;20242;-78
2024/03/21 06:00:57;;;;;;;34.10;22.23;;;;;;;11.11;100.00;101040.34;5056059;28;20277;-78
2024/03/21 06:03:24;;;;;;;35.60;22.43;;;;;;;11.11;100.00;101049.19;5054576;28;20206;-78
2024/03/21 06:05:51;;;;;;;38.93;23.57;;;;;;;11.11;100.00;101045.66;5058044;28;20293;-78
2024/03/21 06:08:17;;;;;;;37.70;24.07;;;;;;;11.11;100.00;101027.00;5056798;28;20279;-79
2024/03/21 06:10:43;;;;;;;42.23;24.67;;;;;;;11.10;100.00;101020.84;5059831;28;20669;-78
2024/03/21 06:13:09;;;;;;;37.60;24.83;;;;;;;11.12;100.00;101010.06;5052464;28;20692;-79
2024/03/21 06:15:36;;;;;;;41.13;24.23;;;;;;;11.13;100.00;101009.97;5048023;28;20257;-78
2024/03/21 06:18:02;;;;;;;42.87;26.83;;;;;;;11.13;100.00;101020.66;5047118;28;20246;-78
2024/03/21 06:20:30;;;;;;;40.00;23.97;;;;;;;11.16;100.00;101032.94;5049218;28;20225;-78
2024/03/21 06:22:56;;;;;;;38.63;24.43;;;;;;;11.17;100.00;101036.47;5040055;28;20290;-79
2024/03/21 06:25:23;;;;;;;43.50;26.23;;;;;;;11.19;100.00;101031.91;5067649;28;20354;-79
2024/03/21 06:27:49;;;;;;;47.27;26.93;;;;;;;11.19;100.00;101029.22;5059424;28;20285;-79
2024/03/21 06:30:16;;;;;;;42.57;26.27;;;;;;;11.21;100.00;101038.00;5053572;28;20699;-79
2024/03/21 06:32:41;;;;;;;43.30;26.47;;;;;;;11.22;100.00;101040.56;5056208;28;20233;-79
2024/03/21 06:35:10;;;;;;;41.93;26.50;;;;;;;11.23;100.00;101044.97;5052518;28;20245;-79
2024/03/21 06:37:37;;;;;;;40.07;26.17;;;;;;;11.23;100.00;101036.97;5054711;28;20218;-78
2024/03/21 06:40:05;;;;;;;37.47;25.47;;;;;;;11.25;100.00;101037.75;5056114;28;20208;-79
2024/03/21 06:42:31;;;;;;;39.17;26.03;;;;;;;11.25;100.00;101043.06;5060172;28;20944;-78
2024/03/21 06:44:58;;;;;;;42.00;26.20;;;;;;;11.28;100.00;101047.38;5058310;28;20398;-78
2024/03/21 06:47:24;;;;;;;55.67;28.10;;;;;;;11.29;100.00;101046.38;5051251;28;20724;-79
2024/03/21 06:49:50;;;;;;;41.00;26.23;;;;;;;11.27;100.00;101048.31;5064353;28;20300;-78
2024/03/21 06:52:16;;;;;;;42.23;26.83;;;;;;;11.27;100.00;101051.84;5055958;28;20231;-79
2024/03/21 06:54:44;;;;;;;42.60;27.07;;;;;;;11.28;100.00;101047.38;5063264;28;20197;-78
2024/03/21 06:57:10;;;;;;;40.30;26.33;;;;;;;11.28;100.00;101058.03;5056817;28;20233;-79
2024/03/21 06:59:37;;;;;;;44.10;26.77;;;;;;;11.27;100.00;101062.50;5055291;28;20662;-78
2024/03/21 07:02:05;;;;;;;41.00;25.53;;;;;;;11.28;100.00;101066.03;5060824;28;20244;-78
2024/03/21 07:04:31;;;;;;;43.77;25.60;;;;;;;11.29;100.00;101070.38;5051770;28;20303;-78
2024/03/21 07:06:58;;;;;;;38.00;22.20;;;;;;;11.28;100.00;101066.88;5052650;28;20299;-78
2024/03/21 07:09:24;;;;;;;36.43;23.50;;;;;;;11.27;100.00;101075.84;5060532;28;20288;-77
2024/03/21 07:11:52;;;;;;;37.50;24.03;;;;;;;11.29;100.00;101065.91;5051745;28;20263;-78
2024/03/21 07:14:17;;;;;;;34.87;22.50;;;;;;;11.30;100.00;101058.75;5061172;28;20233;-78
2024/03/21 07:16:44;;;;;;;34.80;20.80;;;;;;;11.31;100.00;101068.47;5052081;28;20277;-78
2024/03/21 07:19:10;;;;;;;34.20;21.23;;;;;;;11.31;100.00;101076.47;5044146;28;20276;-78
2024/03/21 07:21:37;;;;;;;34.47;20.97;;;;;;;11.31;100.00;101081.81;5062153;28;20314;-79
2024/03/21 07:24:02;;;;;;;34.63;22.20;;;;;;;11.33;100.00;101082.59;5057021;28;20619;-78
2024/03/21 07:26:30;;;;;;;31.93;21.67;;;;;;;11.33;100.00;101079.91;5047152;28;20208;-77
2024/03/21 07:28:57;;;;;;;36.10;21.90;;;;;;;11.34;100.00;101078.97;5058201;28;20206;-78
2024/03/21 07:31:23;;;;;;;33.50;21.47;;;;;;;11.34;100.00;101082.50;5055862;28;20220;-79
2024/03/21 07:33:51;;;;;;;35.57;22.37;;;;;;;11.36;100.00;101077.06;5052476;28;20292;-78
2024/03/21 07:36:18;;;;;;;35.63;22.53;;;;;;;11.36;100.00;101088.59;5059864;28;20273;-78
2024/03/21 07:38:43;;;;;;;36.30;23.60;;;;;;;11.36;100.00;101088.59;5057457;28;20209;-78
2024/03/21 07:41:10;;;;;;;37.27;23.40;;;;;;;11.39;100.00;101093.75;5056511;28;20234;-79
2024/03/21 07:43:36;;;;;;;34.90;22.10;;;;;;;11.41;100.00;101089.19;5047878;28;20239;-78
2024/03/21 07:46:04;;;;;;;35.60;23.00;;;;;;;11.40;100.00;101099.97;5063198;28;20249;-78
2024/03/21 07:48:29;;;;;;;37.03;21.73;;;;;;;11.41;100.00;101093.66;5058270;28;20875;-78
2024/03/21 07:50:56;;;;;;;34.47;22.17;;;;;;;11.43;100.00;101105.97;5054393;28;20271;-77
2024/03/21 07:53:22;;;;;;;28.87;18.37;;;;;;;11.47;100.00;101106.63;5060902;28;20236;-78
2024/03/21 07:55:48;;;;;;;24.03;17.17;;;;;;;11.44;100.00;101109.50;5051169;28;20651;-78
2024/03/21 07:58:14;;;;;;;22.50;15.20;;;;;;;11.44;100.00;101120.16;5055643;28;20301;-78
2024/03/21 08:00:40;;;;;;;15.57;10.90;;;;;;;11.43;100.00;101118.44;5062981;28;20240;-79
2024/03/21 08:03:07;;;;;;;14.60;10.40;;;;;;;11.40;100.00;101116.81;5061782;28;20214;-78
2024/03/21 08:05:34;;;;;;;13.90;9.90;;;;;;;11.38;100.00;101128.53;5046467;28;20250;-78
2024/03/21 08:08:00;;;;;;;13.23;9.07;;;;;;;11.34;100.00;101134.97;5054062;28;20270;-76
2024/03/21 08:10:26;;;;;;;10.87;8.50;;;;;;;11.28;100.00;101140.69;5054907;28;20308;-77
2024/03/21 08:12:52;;;;;;;11.83;8.03;;;;;;;11.23;100.00;101132.94;5050640;28;20294;-77
2024/03/21 08:15:18;;;;;;;10.57;7.10;;;;;;;11.20;100.00;101142.94;5063985;28;20242;-78
2024/03/21 08:17:44;;;;;;;10.10;6.67;;;;;;;11.14;100.00;101144.13;5058230;28;20662;-77
2024/03/21 08:20:12;;;;;;;8.77;6.83;;;;;;;11.12;100.00;101152.22;5056168;28;20209;-77
2024/03/21 08:22:39;;;;;;;7.90;5.77;;;;;;;11.13;100.00;101153.94;5051559;28;20292;-78
2024/03/21 08:25:05;;;;;;;6.73;6.03;;;;;;;11.09;100.00;101163.09;5049576;28;20293;-78
2024/03/21 08:27:33;;;;;;;6.70;5.50;;;;;;;11.10;100.00;101164.81;5054108;28;20217;-78
2024/03/21 08:30:01;;;;;;;7.60;5.43;;;;;;;11.21;100.00;101164.16;5052139;28;20306;-77
2024/03/21 08:32:28;;;;;;;5.80;4.83;;;;;;;11.27;100.00;101154.97;5050084;28;20278;-78
2024/03/21 08:34:53;;;;;;;5.23;4.17;;;;;;;11.30;100.00;101163.63;5051517;28;20250;-78
2024/03/21 08:37:22;;;;;;;5.80;4.90;;;;;;;11.32;100.00;101180.38;5054438;28;20703;-77
2024/03/21 08:39:47;;;;;;;6.70;4.93;;;;;;;11.35;100.00;101182.03;5056654;28;20579;-77
2024/03/21 08:42:14;;;;;;;6.23;4.93;;;;;;;11.35;100.00;101196.22;5053057;28;20231;-77
2024/03/21 08:44:40;;;;;;;7.90;6.70;;;;;;;11.32;100.00;101204.41;5052338;28;20281;-78
2024/03/21 08:47:06;;;;;;;9.03;7.57;;;;;;;11.30;100.00;101205.44;5058933;28;20233;-78
2024/03/21 08:49:32;;;;;;;7.17;6.30;;;;;;;11.25;100.00;101204.84;5051783;28;20237;-77
2024/03/21 08:51:58;;;;;;;8.53;7.07;;;;;;;11.25;99.62;101210.19;5053789;28;20723;-77
2024/03/21 08:54:26;;;;;;;8.57;6.67;;;;;;;11.23;100.00;101220.94;5052156;28;20653;-77
2024/03/21 08:56:52;;;;;;;7.90;7.10;;;;;;;11.20;98.09;101234.44;5047570;28;20231;-78
2024/03/21 08:59:18;;;;;;;7.27;5.93;;;;;;;11.08;94.60;101220.00;5051625;28;20235;-78
2024/03/21 09:01:45;;;;;;;10.57;7.00;;;;;;;10.96;94.63;101218.00;5046670;28;20301;-78
2024/03/21 09:04:10;;;;;;;9.03;7.70;;;;;;;10.91;95.17;101249.41;5057200;28;20700;-78
2024/03/21 09:06:37;;;;;;;9.63;7.23;;;;;;;10.88;95.46;101238.91;5050232;28;20218;-77
2024/03/21 09:09:05;;;;;;;10.23;9.13;;;;;;;10.85;94.81;101256.88;5053728;28;20234;-78
2024/03/21 09:11:33;;;;;;;11.20;8.93;;;;;;;10.79;94.81;101263.38;5048487;28;20256;-78
2024/03/21 09:13:59;;;;;;;10.53;8.30;;;;;;;10.70;94.74;101251.44;5049952;28;20202;-77
2024/03/21 09:16:26;;;;;;;9.47;8.00;;;;;;;10.61;94.40;101254.56;5048306;28;20256;-77
2024/03/21 09:18:51;;;;;;;9.67;8.67;;;;;;;10.54;93.76;101276.31;5052312;28;20235;-78
2024/03/21 09:21:18;;;;;;;9.17;8.07;;;;;;;10.48;94.39;101261.50;5056479;28;20221;-78
2024/03/21 09:23:45;;;;;;;11.13;8.30;;;;;;;10.43;94.80;101280.38;5061331;28;20689;-77
2024/03/21 09:26:12;;;;;;;10.33;7.63;;;;;;;10.34;94.53;101280.88;5056653;28;21389;-77
2024/03/21 09:28:39;;;;;;;10.17;8.10;;;;;;;10.31;94.74;101288.16;5060709;28;20465;-78
2024/03/21 09:31:06;;;;;;;8.73;7.83;;;;;;;10.25;95.26;101296.47;5047159;28;20273;-77
2024/03/21 09:33:32;;;;;;;12.03;7.60;;;;;;;10.23;95.05;101299.19;5056738;28;20229;-78
2024/03/21 09:35:59;;;;;;;9.00;6.27;;;;;;;10.21;95.00;101306.41;5055615;28;20262;-77
2024/03/21 09:38:25;;;;;;;7.73;6.70;;;;;;;10.15;95.16;101311.16;5052776;28;20270;-78
2024/03/21 09:40:52;;;;;;;6.77;5.70;;;;;;;10.10;95.24;101317.56;5050810;28;20633;-78
2024/03/21 09:43:18;;;;;;;8.80;6.07;;;;;;;10.05;95.12;101329.38;5047880;28;20293;-78
2024/03/21 09:45:46;;;;;;;6.37;5.03;;;;;;;10.02;96.17;101335.75;5048738;28;20648;-78
2024/03/21 09:48:12;;;;;;;8.30;5.10;;;;;;;9.99;96.19;101343.88;5046437;28;20305;-78
2024/03/21 09:50:42;;;;;;;5.23;3.90;;;;;;;10.01;95.57;101363.28;5049078;28;20263;-79
2024/03/21 09:53:11;;;;;;;5.30;3.70;;;;;;;9.98;94.37;101350.13;5055399;28;20285;-78
2024/03/21 09:55:38;;;;;;;4.70;3.77;;;;;;;9.91;92.65;101354.03;5047436;28;20233;-77
2024/03/21 09:58:10;;;;;;;5.10;3.00;;;;;;;9.82;92.32;101343.00;5052861;28;20201;-78
2024/03/21 10:00:36;;;;;;;7.10;4.33;;;;;;;9.81;92.51;101355.44;5056841;28;20253;-77
2024/03/21 10:03:04;;;;;;;3.83;3.37;;;;;;;9.85;93.41;101357.00;5054163;28;20671;-78
2024/03/21 10:05:31;;;;;;;5.10;3.27;;;;;;;9.84;92.88;101357.94;5048643;28;20804;-78
2024/03/21 10:07:56;;;;;;;5.80;4.00;;;;;;;9.91;93.48;101364.66;5051500;28;20233;-78
2024/03/21 10:10:23;;;;;;;12.57;5.10;;;;;;;9.91;94.07;101355.81;5043925;28;20257;-77
2024/03/21 10:12:50;;;;;;;6.57;5.07;;;;;;;9.92;94.88;101360.22;5048279;28;20252;-78
2024/03/21 10:15:17;;;;;;;7.67;5.17;;;;;;;9.90;94.93;101362.09;5049319;28;20220;-77
2024/03/21 10:17:43;;;;;;;7.43;4.47;;;;;;;9.89;95.32;101365.69;5052282;28;20350;-77
2024/03/21 10:20:11;;;;;;;7.13;4.43;;;;;;;9.86;94.80;101364.03;5044646;28;20266;-77
2024/03/21 10:22:43;;;;;;;7.13;4.70;;;;;;;9.83;94.03;101369.53;5054837;28;20289;-77
2024/03/21 10:25:14;;;;;;;6.43;3.83;;;;;;;9.77;94.53;101368.94;5050096;28;20212;-77
2024/03/21 10:27:41;;;;;;;8.47;3.90;;;;;;;9.75;94.60;101372.53;5050249;28;20198;-77
2024/03/21 10:30:16;;;;;;;7.13;3.87;;;;;;;9.72;94.54;101370.03;5056018;28;20210;-77
2024/03/21 10:32:43;;;;;;;6.57;3.37;;;;;;;9.68;94.16;101376.41;5054422;28;20199;-78
2024/03/21 10:35:14;;;;;;;5.40;2.83;;;;;;;9.68;93.90;101379.06;5052721;28;20235;-77
2024/03/21 10:37:41;;;;;;;5.27;2.90;;;;;;;9.64;93.11;101385.50;5048588;28;20225;-80
2024/03/21 10:40:11;;;;;;;7.97;3.53;;;;;;;9.65;93.92;101386.38;5052922;28;20263;-78
2024/03/21 10:42:41;;;;;;;6.77;2.93;;;;;;;9.68;94.11;101387.06;5049499;28;20634;-78
2024/03/21 10:45:13;;;;;;;5.13;2.93;;;;;;;9.68;93.56;101387.06;5056075;28;20209;-78
2024/03/21 10:47:46;;;;;;;4.93;2.90;;;;;;;9.67;93.31;101385.34;5051556;28;20498;-78
2024/03/21 10:50:20;;;;;;;6.37;3.67;;;;;;;9.71;93.67;101402.00;5045467;28;20253;-77
2024/03/21 10:52:50;;;;;;;5.97;2.97;;;;;;;9.71;93.79;101394.91;5052429;28;20846;-78
2024/03/21 10:55:18;;;;;;;5.23;2.90;;;;;;;9.72;94.17;101401.06;5047372;28;20688;-78
2024/03/21 10:57:49;;;;;;;5.07;3.00;;;;;;;9.71;93.65;101402.00;5051041;28;20505;-78
2024/03/21 11:00:19;;;;;;;5.37;3.13;;;;;;;9.72;92.99;101409.06;5054169;28;20210;-77
2024/03/21 11:02:49;;;;;;;6.43;3.10;;;;;;;9.69;92.54;101411.84;5053546;28;20205;-78
2024/03/21 11:05:18;;;;;;;7.83;3.30;;;;;;;9.70;92.59;101416.25;5047145;28;20217;-77
2024/03/21 11:07:45;;;;;;;6.47;3.20;;;;;;;9.68;93.14;101411.00;5052382;28;20208;-77
2024/03/21 11:10:17;;;;;;;6.13;3.97;;;;;;;9.69;93.44;101415.38;5049805;28;20193;-77